RYR76MK EPKT-EGSS
Flight info
| Callsign | RYR76MK |
|---|---|
| Flight time | N/A |
| Altitude | 38000 |
| Route | OMFOL T738 DINOV DCT NAROX DCT KUMER DCT NOGRO M40 RINIS |
| Aircraft | B737/M-SDE2E3FGHIRWXY/LB1 |
Departure
| Time | 2026-05-04 17:56 |
|---|---|
| Airport | Katowice Wojciech Korfanty International Airport (EPKT) |
Arrival
| Time | N/A |
|---|---|
| Airport | London Stansted Airport (EGSS) |
| Time | Latitude | Longitude | Altitude | Speed | Heading |
|---|---|---|---|---|---|
| 2026-05-04 17:25 | 50.47148 | 19.07826 | 997 ft | 0 kts | 180° |
| 2026-05-04 17:46 | 50.47149 | 19.07826 | 997 ft | 2 kts | 180° |
| 2026-05-04 17:46 | 50.47173 | 19.07826 | 999 ft | 4 kts | 180° |
| 2026-05-04 17:46 | 50.47197 | 19.07827 | 997 ft | 2 kts | 180° |
| 2026-05-04 17:47 | 50.47217 | 19.07825 | 997 ft | 4 kts | 156° |
| 2026-05-04 17:47 | 50.47233 | 19.07803 | 997 ft | 4 kts | 99° |
| 2026-05-04 17:47 | 50.47234 | 19.07767 | 997 ft | 4 kts | 90° |
| 2026-05-04 17:47 | 50.47234 | 19.07756 | 997 ft | 1 kts | 90° |
| 2026-05-04 17:51 | 50.47234 | 19.07761 | 997 ft | 1 kts | 90° |
| 2026-05-04 17:51 | 50.47234 | 19.07773 | 997 ft | 2 kts | 91° |
| 2026-05-04 17:52 | 50.47233 | 19.07820 | 997 ft | 7 kts | 91° |
| 2026-05-04 17:52 | 50.47232 | 19.07921 | 1001 ft | 12 kts | 91° |
| 2026-05-04 17:52 | 50.47231 | 19.08073 | 1003 ft | 16 kts | 91° |
| 2026-05-04 17:52 | 50.47229 | 19.08271 | 1000 ft | 20 kts | 91° |
| 2026-05-04 17:53 | 50.47229 | 19.08509 | 999 ft | 24 kts | 89° |
| 2026-05-04 17:53 | 50.47231 | 19.08788 | 1000 ft | 27 kts | 90° |
| 2026-05-04 17:53 | 50.47231 | 19.09103 | 997 ft | 30 kts | 90° |
| 2026-05-04 17:53 | 50.47230 | 19.09453 | 997 ft | 33 kts | 90° |
| 2026-05-04 17:54 | 50.47228 | 19.09832 | 997 ft | 36 kts | 90° |
| 2026-05-04 17:54 | 50.47271 | 19.10092 | 997 ft | 16 kts | 52° |
| 2026-05-04 17:54 | 50.47333 | 19.10219 | 1001 ft | 14 kts | 52° |
| 2026-05-04 17:54 | 50.47387 | 19.10329 | 997 ft | 12 kts | 52° |
| 2026-05-04 17:55 | 50.47432 | 19.10418 | 998 ft | 10 kts | 47° |
| 2026-05-04 17:55 | 50.47495 | 19.10449 | 998 ft | 10 kts | 3° |
| 2026-05-04 17:55 | 50.47568 | 19.10428 | 999 ft | 12 kts | 329° |
| 2026-05-04 17:55 | 50.47594 | 19.10303 | 997 ft | 14 kts | 269° |
| 2026-05-04 17:56 | 50.47594 | 19.09798 | 996 ft | 81 kts | 270° |
| 2026-05-04 17:56 | 50.47596 | 19.08585 | 998 ft | 139 kts | 269° |
| 2026-05-04 17:56 | 50.47575 | 19.06862 | 1200 ft | 168 kts | 271° |
| 2026-05-04 17:56 | 50.47701 | 19.04976 | 1787 ft | 180 kts | 276° |
| 2026-05-04 17:57 | 50.47853 | 19.03024 | 2544 ft | 180 kts | 271° |
| 2026-05-04 17:57 | 50.47910 | 19.01032 | 3208 ft | 184 kts | 266° |
| 2026-05-04 17:57 | 50.47874 | 18.99687 | 3616 ft | 191 kts | 263° |
| 2026-05-04 17:57 | 50.47788 | 18.97487 | 3885 ft | 215 kts | 264° |
| 2026-05-04 17:58 | 50.47706 | 18.94096 | 4279 ft | 249 kts | 265° |
| 2026-05-04 17:58 | 50.47665 | 18.92238 | 4756 ft | 254 kts | 265° |
| 2026-05-04 17:58 | 50.47591 | 18.88536 | 5867 ft | 258 kts | 266° |
| 2026-05-04 17:58 | 50.47556 | 18.86617 | 6413 ft | 262 kts | 266° |
| 2026-05-04 17:59 | 50.47509 | 18.83739 | 7259 ft | 265 kts | 267° |
| 2026-05-04 17:59 | 50.47465 | 18.80866 | 8122 ft | 269 kts | 267° |
| 2026-05-04 17:59 | 50.47380 | 18.74922 | 9912 ft | 276 kts | 267° |
| 2026-05-04 18:00 | 50.47337 | 18.71848 | 10498 ft | 292 kts | 267° |
| 2026-05-04 18:00 | 50.47288 | 18.68506 | 10749 ft | 317 kts | 267° |
| 2026-05-04 18:00 | 50.47239 | 18.64983 | 11434 ft | 325 kts | 266° |
| 2026-05-04 18:00 | 50.47209 | 18.61423 | 12316 ft | 328 kts | 270° |
| 2026-05-04 18:01 | 50.47610 | 18.57866 | 13221 ft | 334 kts | 284° |
| 2026-05-04 18:01 | 50.48359 | 18.54424 | 14088 ft | 339 kts | 286° |
| 2026-05-04 18:01 | 50.49152 | 18.50915 | 14895 ft | 343 kts | 286° |
| 2026-05-04 18:02 | 50.50766 | 18.43788 | 16574 ft | 349 kts | 287° |
| 2026-05-04 18:02 | 50.51577 | 18.40168 | 17408 ft | 353 kts | 287° |
| 2026-05-04 18:02 | 50.52392 | 18.36506 | 18223 ft | 357 kts | 287° |
| 2026-05-04 18:02 | 50.53211 | 18.32801 | 18922 ft | 361 kts | 287° |
| 2026-05-04 18:03 | 50.54039 | 18.29043 | 19595 ft | 366 kts | 287° |
| 2026-05-04 18:03 | 50.54874 | 18.25239 | 20268 ft | 370 kts | 287° |
| 2026-05-04 18:03 | 50.55717 | 18.21384 | 20945 ft | 375 kts | 287° |
| 2026-05-04 18:03 | 50.56569 | 18.17483 | 21622 ft | 379 kts | 288° |
| 2026-05-04 18:04 | 50.57428 | 18.13535 | 22281 ft | 383 kts | 288° |
| 2026-05-04 18:04 | 50.58295 | 18.09545 | 22927 ft | 388 kts | 288° |
| 2026-05-04 18:04 | 50.60042 | 18.01481 | 24077 ft | 396 kts | 288° |
| 2026-05-04 18:05 | 50.60931 | 17.97368 | 24644 ft | 398 kts | 288° |
| 2026-05-04 18:05 | 50.61824 | 17.93227 | 25222 ft | 400 kts | 288° |
| 2026-05-04 18:05 | 50.62717 | 17.89073 | 25792 ft | 402 kts | 288° |
| 2026-05-04 18:05 | 50.63614 | 17.84897 | 26332 ft | 404 kts | 288° |
| 2026-05-04 18:06 | 50.65424 | 17.76436 | 27369 ft | 410 kts | 288° |
| 2026-05-04 18:06 | 50.66334 | 17.72170 | 27876 ft | 412 kts | 288° |
| 2026-05-04 18:06 | 50.67250 | 17.67866 | 28374 ft | 415 kts | 288° |
| 2026-05-04 18:07 | 50.68169 | 17.63541 | 28851 ft | 417 kts | 288° |
| 2026-05-04 18:07 | 50.69091 | 17.59188 | 29323 ft | 419 kts | 288° |
| 2026-05-04 18:07 | 50.70018 | 17.54808 | 29779 ft | 422 kts | 288° |
| 2026-05-04 18:07 | 50.70946 | 17.50408 | 30226 ft | 423 kts | 288° |
| 2026-05-04 18:08 | 50.71862 | 17.46059 | 30714 ft | 422 kts | 288° |
| 2026-05-04 18:08 | 50.72783 | 17.41677 | 31234 ft | 419 kts | 288° |
| 2026-05-04 18:08 | 50.73697 | 17.37318 | 31747 ft | 417 kts | 288° |
| 2026-05-04 18:08 | 50.74612 | 17.32946 | 31913 ft | 420 kts | 288° |
| 2026-05-04 18:09 | 50.78217 | 17.15622 | 31937 ft | 416 kts | 287° |
| 2026-05-04 18:10 | 50.80014 | 17.06928 | 31941 ft | 416 kts | 287° |
| 2026-05-04 18:10 | 50.81810 | 16.98202 | 32029 ft | 420 kts | 287° |
| 2026-05-04 18:11 | 50.82711 | 16.93809 | 32492 ft | 418 kts | 287° |
| 2026-05-04 18:11 | 50.83600 | 16.89467 | 33158 ft | 412 kts | 287° |
| 2026-05-04 18:11 | 50.84477 | 16.85179 | 33721 ft | 408 kts | 287° |
| 2026-05-04 18:11 | 50.85348 | 16.80902 | 34099 ft | 408 kts | 287° |
| 2026-05-04 18:12 | 50.86217 | 16.76628 | 34372 ft | 409 kts | 287° |
| 2026-05-04 18:12 | 50.87087 | 16.72340 | 34653 ft | 409 kts | 287° |
| 2026-05-04 18:12 | 50.87957 | 16.68041 | 34998 ft | 409 kts | 287° |
| 2026-05-04 18:12 | 50.88822 | 16.63762 | 35369 ft | 407 kts | 286° |
| 2026-05-04 18:13 | 50.89682 | 16.59496 | 35705 ft | 406 kts | 286° |
| 2026-05-04 18:13 | 50.90540 | 16.55230 | 35955 ft | 408 kts | 286° |
| 2026-05-04 18:14 | 50.93142 | 16.42234 | 35924 ft | 411 kts | 286° |
| 2026-05-04 18:14 | 50.94835 | 16.33740 | 35937 ft | 405 kts | 286° |
| 2026-05-04 18:15 | 50.98221 | 16.16625 | 35938 ft | 407 kts | 286° |
| 2026-05-04 18:16 | 50.99909 | 16.08036 | 35946 ft | 408 kts | 285° |
| 2026-05-04 18:16 | 51.01591 | 15.99436 | 35940 ft | 407 kts | 285° |
| 2026-05-04 18:17 | 51.04073 | 15.86686 | 35945 ft | 400 kts | 285° |
| 2026-05-04 18:18 | 51.06513 | 15.74060 | 35943 ft | 400 kts | 285° |
| 2026-05-04 18:18 | 51.08142 | 15.65583 | 35950 ft | 401 kts | 285° |
| 2026-05-04 18:19 | 51.10577 | 15.52844 | 35949 ft | 402 kts | 285° |
| 2026-05-04 18:19 | 51.12196 | 15.44326 | 35949 ft | 402 kts | 285° |
| 2026-05-04 18:20 | 51.13812 | 15.35788 | 35948 ft | 403 kts | 285° |
| 2026-05-04 18:20 | 51.15424 | 15.27231 | 35949 ft | 403 kts | 285° |
| 2026-05-04 18:21 | 51.17030 | 15.18666 | 35951 ft | 404 kts | 284° |
| 2026-05-04 18:21 | 51.18634 | 15.10078 | 35951 ft | 404 kts | 284° |
| 2026-05-04 18:22 | 51.20223 | 15.01470 | 35951 ft | 404 kts | 283° |
| 2026-05-04 18:22 | 51.21224 | 14.92662 | 35955 ft | 403 kts | 277° |
| 2026-05-04 18:23 | 51.22007 | 14.83796 | 35957 ft | 404 kts | 276° |
| 2026-05-04 18:23 | 51.22796 | 14.74924 | 35955 ft | 404 kts | 277° |
| 2026-05-04 18:24 | 51.23607 | 14.66039 | 35960 ft | 404 kts | 277° |
| 2026-05-04 18:24 | 51.24418 | 14.57216 | 35957 ft | 404 kts | 277° |
| 2026-05-04 18:25 | 51.25233 | 14.48313 | 35959 ft | 404 kts | 277° |
| 2026-05-04 18:25 | 51.26035 | 14.39487 | 35972 ft | 404 kts | 276° |
| 2026-05-04 18:26 | 51.26834 | 14.30610 | 35961 ft | 403 kts | 276° |
| 2026-05-04 18:26 | 51.27626 | 14.21726 | 35960 ft | 403 kts | 276° |
| 2026-05-04 18:27 | 51.28409 | 14.12870 | 35963 ft | 402 kts | 276° |
| 2026-05-04 18:27 | 51.29184 | 14.04016 | 35965 ft | 401 kts | 276° |
| 2026-05-04 18:28 | 51.29947 | 13.95239 | 35966 ft | 401 kts | 276° |
| 2026-05-04 18:28 | 51.30707 | 13.86397 | 35965 ft | 401 kts | 276° |
| 2026-05-04 18:29 | 51.31460 | 13.77570 | 35966 ft | 400 kts | 276° |
| 2026-05-04 18:29 | 51.32206 | 13.68744 | 35966 ft | 400 kts | 276° |
| 2026-05-04 18:30 | 51.33307 | 13.55563 | 35960 ft | 400 kts | 276° |
| 2026-05-04 18:31 | 51.34036 | 13.46730 | 35972 ft | 400 kts | 275° |
| 2026-05-04 18:31 | 51.34758 | 13.37902 | 35959 ft | 400 kts | 275° |
| 2026-05-04 18:32 | 51.35474 | 13.29064 | 35961 ft | 400 kts | 275° |
| 2026-05-04 18:32 | 51.36183 | 13.20224 | 35954 ft | 400 kts | 275° |
| 2026-05-04 18:33 | 51.36881 | 13.11442 | 35951 ft | 400 kts | 275° |
| 2026-05-04 18:33 | 51.37576 | 13.02599 | 35960 ft | 400 kts | 275° |
| 2026-05-04 18:34 | 51.38266 | 12.93745 | 35953 ft | 401 kts | 275° |
| 2026-05-04 18:34 | 51.38949 | 12.84883 | 35957 ft | 401 kts | 275° |
| 2026-05-04 18:35 | 51.39627 | 12.76001 | 35960 ft | 403 kts | 275° |
| 2026-05-04 18:35 | 51.40306 | 12.66999 | 35964 ft | 416 kts | 275° |
| 2026-05-04 18:36 | 51.40996 | 12.57771 | 35940 ft | 416 kts | 275° |
| 2026-05-04 18:36 | 51.41678 | 12.48564 | 35947 ft | 415 kts | 275° |
| 2026-05-04 18:37 | 51.42350 | 12.39381 | 35935 ft | 414 kts | 274° |
| 2026-05-04 18:37 | 51.43012 | 12.30238 | 35937 ft | 413 kts | 274° |
| 2026-05-04 18:38 | 51.43665 | 12.21110 | 35940 ft | 411 kts | 274° |
| 2026-05-04 18:38 | 51.44309 | 12.12007 | 35953 ft | 411 kts | 274° |
| 2026-05-04 18:39 | 51.44942 | 12.02965 | 35968 ft | 410 kts | 274° |
| 2026-05-04 18:39 | 51.45570 | 11.93884 | 35957 ft | 410 kts | 274° |
| 2026-05-04 18:40 | 51.46191 | 11.84803 | 35953 ft | 409 kts | 274° |
| 2026-05-04 18:40 | 51.46805 | 11.75721 | 35946 ft | 409 kts | 274° |
| 2026-05-04 18:41 | 51.47410 | 11.66656 | 35950 ft | 408 kts | 274° |
| 2026-05-04 18:41 | 51.48008 | 11.57595 | 35964 ft | 408 kts | 273° |
| 2026-05-04 18:42 | 51.48600 | 11.48524 | 35963 ft | 409 kts | 273° |
| 2026-05-04 18:42 | 51.49181 | 11.39505 | 35957 ft | 409 kts | 273° |
| 2026-05-04 18:43 | 51.49760 | 11.30409 | 35962 ft | 410 kts | 273° |
| 2026-05-04 18:43 | 51.50334 | 11.21285 | 35969 ft | 411 kts | 273° |
| 2026-05-04 18:44 | 51.50807 | 11.13667 | 35967 ft | 412 kts | 273° |
| 2026-05-04 18:44 | 51.51371 | 11.04480 | 35957 ft | 414 kts | 273° |
| 2026-05-04 18:45 | 51.52020 | 10.93761 | 35973 ft | 415 kts | 272° |
| 2026-05-04 18:45 | 51.52480 | 10.86068 | 35970 ft | 416 kts | 272° |
| 2026-05-04 18:46 | 51.53028 | 10.76796 | 35970 ft | 417 kts | 272° |
| 2026-05-04 18:46 | 51.53569 | 10.67522 | 35971 ft | 416 kts | 272° |
| 2026-05-04 18:47 | 51.54175 | 10.58260 | 35983 ft | 417 kts | 275° |
| 2026-05-04 18:47 | 51.55006 | 10.49102 | 35973 ft | 417 kts | 275° |
| 2026-05-04 18:48 | 51.55866 | 10.39890 | 35977 ft | 416 kts | 275° |
| 2026-05-04 18:48 | 51.56694 | 10.30681 | 35983 ft | 416 kts | 275° |
| 2026-05-04 18:49 | 51.57497 | 10.21464 | 35979 ft | 415 kts | 275° |
| 2026-05-04 18:49 | 51.58285 | 10.12282 | 35990 ft | 415 kts | 275° |
| 2026-05-04 18:50 | 51.59064 | 10.03092 | 35977 ft | 414 kts | 274° |
| 2026-05-04 18:50 | 51.59831 | 9.93977 | 35982 ft | 413 kts | 274° |
| 2026-05-04 18:51 | 51.60592 | 9.84827 | 35972 ft | 413 kts | 274° |
| 2026-05-04 18:51 | 51.61347 | 9.75674 | 35980 ft | 412 kts | 274° |
| 2026-05-04 18:52 | 51.62095 | 9.66521 | 35995 ft | 412 kts | 274° |
| 2026-05-04 18:52 | 51.62834 | 9.57368 | 35982 ft | 412 kts | 274° |
| 2026-05-04 18:53 | 51.63567 | 9.48217 | 35987 ft | 412 kts | 274° |
| 2026-05-04 18:53 | 51.64290 | 9.39095 | 35983 ft | 412 kts | 274° |
| 2026-05-04 18:54 | 51.65010 | 9.29925 | 35969 ft | 412 kts | 274° |
| 2026-05-04 18:54 | 51.65722 | 9.20756 | 35964 ft | 413 kts | 274° |
| 2026-05-04 18:55 | 51.66427 | 9.11574 | 35979 ft | 413 kts | 274° |
| 2026-05-04 18:55 | 51.67469 | 8.97849 | 35985 ft | 413 kts | 273° |